x

Newport, Or (nwpo3) Weather Station

2:00am - Tue 29th Jul 2014 All times are PDT. -7 hours from GMT.

  • Wind
    13mph, 16mph gusts
  • Air Temp 53°f
  • Sea Pressure 1020mb
  • Newport, Or
  • Newport, Or

More Historic Weather Station data

Upgrade to MSW Pro to gain access to the past 30 days of data for over 8000 Wavebouys and Weather Stations around the globe.

Join Pro

Comparision Forecast

View Surf forecast
   
Tue 07/29 2:00am 13 16 mph 1020mb 53f
1:00am 13 15 mph 1020.1mb 52f
12:00am 17 18 mph 1019.9mb 53f
Mon 07/28 11:00pm 16 18 mph 1019.7mb 52f
10:00pm 20 22 mph 1019.8mb 52f
9:00pm 17 21 mph 1019.4mb 52f
8:00pm 20 24 mph 1019mb 53f
7:00pm 18 22 mph 1018.8mb 53f
6:00pm 21 25 mph 1018.8mb 54f
5:00pm 20 21 mph 1019.1mb 53f
4:00pm 20 22 mph 1019.4mb 53f
3:00pm 23 26 mph 1019.4mb 53f
2:00pm 23 25 mph 1019.4mb 53f
1:00pm 25 28 mph 1019.5mb 52f
12:00pm 22 24 mph 1019.6mb 51f
11:00am 18 20 mph 1019.6mb 51f
10:00am 15 17 mph 1019.6mb 51f
9:00am 13 14 mph 1019.8mb 53f
8:00am 7 8 mph 1019.7mb 51f
7:00am 2
mph
1019.6mb 53f
6:00am 1 2 mph 1019.4mb 53f
5:00am  -  1 mph 1019mb 50f
4:00am 5
mph
1019mb 49f
3:00am 8 9 mph 1018.8mb 50f
2:00am 6 7 mph 1018.8mb 51f
1:00am 9 10 mph 1019mb 52f
12:00am 15 17 mph 1019mb 54f
Sun 07/27 11:00pm 20 22 mph 1018.9mb 56f
10:00pm 21 22 mph 1018.7mb 55f
9:00pm 21 23 mph 1018.5mb 56f
8:00pm 21 23 mph 1018.5mb 56f
7:00pm 18 21 mph 1018.4mb 55f
6:00pm 22 24 mph 1018.5mb 56f
5:00pm 22 26 mph 1018.8mb 56f
4:00pm 22 24 mph 1018.6mb 56f
3:00pm 18 21 mph 1019.2mb 55f
2:00pm 20 22 mph 1019.3mb 56f
1:00pm 18 21 mph 1019.3mb 55f
12:00pm 15 17 mph 1019.7mb 54f
11:00am 21 22 mph 1019.6mb 55f
10:00am 14 16 mph 1019.9mb 55f
9:00am 7 9 mph 1020.1mb 55f
8:00am 5
mph
1020mb 54f
7:00am 3
mph
1020.2mb 53f
6:00am 6
mph
1020mb 54f
5:00am 2
mph
1020.1mb 54f
4:00am 2
mph
1019.9mb 54f
3:00am 2
mph
1019.8mb 55f
2:00am 2 3 mph 1020.1mb 54f
1:00am 6
mph
1020.2mb 56f
12:00am 9 10 mph 1020.4mb 56f
Sat 07/26 11:00pm 13 15 mph 1020.4mb 57f
10:00pm 17 20 mph 1020.3mb 57f
9:00pm 21 24 mph 1019.9mb 58f
8:00pm 23 26 mph 1019.8mb 58f
7:00pm 20 22 mph 1019.9mb 58f
6:00pm 22 26 mph 1020mb 59f
5:00pm 20 22 mph 1020.2mb 58f
4:00pm 21 23 mph 1020.4mb 58f
3:00pm 20 22 mph 1020.5mb 58f
2:00pm 18 21 mph 1020.8mb 57f
1:00pm 18 20 mph 1020.9mb 57f
12:00pm 17 20 mph 1021.3mb 57f
11:00am 16 18 mph 1021.3mb 57f
10:00am 9 11 mph 1021.2mb 56f
9:00am 5
mph
1020.9mb 57f
8:00am 5
mph
1020.9mb 54f
7:00am 3 5 mph 1020.7mb 53f
6:00am 5
mph
1020.2mb 52f
5:00am 5 6 mph 1020.2mb 53f
4:00am 3
mph
1020.2mb 53f
3:00am 3
mph
1019.9mb 54f
2:00am  -  1 mph 1019.9mb 54f
1:00am 2
mph
1020mb 55f
12:00am 7 8 mph 1019.8mb 57f
Fri 07/25 11:00pm 5 7 mph 1020mb 56f
10:00pm 8 10 mph 1020.1mb 56f
9:00pm 13 15 mph 1019.4mb 58f
8:00pm 15 16 mph 1019.3mb 58f
7:00pm 16 20 mph 1019.3mb 58f
6:00pm 16 17 mph 1019.5mb 58f
5:00pm 15 17 mph 1019.8mb 58f
4:00pm 15 17 mph 1019.8mb 58f
3:00pm 15 17 mph 1020.2mb 58f
2:00pm 17 18 mph 1020.5mb 58f
1:00pm 14 15 mph 1020.7mb 58f
12:00pm 9 10 mph 1020.7mb 57f
11:00am 8 9 mph 1020.8mb 56f